createdAt,value
2019-02-28T00:00:41.508Z,55.92
2019-02-28T00:03:17.461Z,56.03
2019-02-28T00:05:52.916Z,56.17
2019-02-28T00:08:23.427Z,55.82
2019-02-28T00:11:12.439Z,55.55
2019-02-28T00:13:48.907Z,55.28
2019-02-28T00:16:25.295Z,55.23
2019-02-28T00:18:57.504Z,55.12
2019-02-28T00:21:31.688Z,55.11
2019-02-28T00:24:04.742Z,55.18
2019-02-28T00:26:46.268Z,54.96
2019-02-28T00:29:12.746Z,55.00
2019-02-28T00:31:50.791Z,55.13
2019-02-28T00:34:39.346Z,54.85
2019-02-28T00:37:29.751Z,55.02
2019-02-28T00:40:01.710Z,55.28
2019-02-28T00:42:32.911Z,55.20
2019-02-28T00:45:03.781Z,55.41
2019-02-28T00:47:36.003Z,55.45
2019-02-28T00:50:06.145Z,55.63
2019-02-28T00:52:36.312Z,55.16
2019-02-28T00:55:06.713Z,55.17
2019-02-28T00:57:36.972Z,55.29
2019-02-28T01:00:08.445Z,55.41
2019-02-28T01:02:38.767Z,55.14
2019-02-28T01:05:10.726Z,55.04
2019-02-28T01:07:40.827Z,55.25
2019-02-28T01:10:11.978Z,55.45
2019-02-28T01:12:45.074Z,55.55
2019-02-28T01:15:15.402Z,55.81
2019-02-28T01:17:45.553Z,55.99
2019-02-28T01:20:17.504Z,56.12
2019-02-28T01:22:48.847Z,56.41
2019-02-28T01:25:20.505Z,56.27
2019-02-28T01:27:53.456Z,56.39
2019-02-28T01:30:23.592Z,56.52
2019-02-28T01:32:55.541Z,56.66
2019-02-28T01:35:25.714Z,56.67
2019-02-28T01:37:58.908Z,56.95
2019-02-28T01:40:31.382Z,57.49
2019-02-28T01:43:01.491Z,57.82
2019-02-28T01:45:32.596Z,57.50
2019-02-28T01:48:03.133Z,57.35
2019-02-28T01:50:33.851Z,57.65
2019-02-28T01:53:04.124Z,57.86
2019-02-28T01:55:34.266Z,58.23
2019-02-28T01:58:04.375Z,58.63
2019-02-28T02:00:34.504Z,58.83
2019-02-28T02:03:04.586Z,58.96
2019-02-28T02:05:34.736Z,59.21
2019-02-28T02:08:07.597Z,59.70
2019-02-28T02:10:37.762Z,59.98
2019-02-28T02:13:07.896Z,59.56
2019-02-28T02:15:37.989Z,60.30
2019-02-28T02:18:09.432Z,60.41
2019-02-28T02:20:39.892Z,60.45
2019-02-28T02:23:10.012Z,60.40
2019-02-28T02:25:40.124Z,60.76
2019-02-28T02:28:10.346Z,61.37
2019-02-28T02:30:40.464Z,61.35
2019-02-28T02:33:14.428Z,61.70
2019-02-28T02:35:43.653Z,61.92
2019-02-28T02:38:13.741Z,62.16
2019-02-28T02:40:43.836Z,62.31
2019-02-28T02:43:14.027Z,62.41
2019-02-28T02:45:45.588Z,62.69
2019-02-28T02:48:16.042Z,62.76
2019-02-28T02:50:46.654Z,63.17
2019-02-28T02:53:17.974Z,63.37
2019-02-28T02:55:48.083Z,63.46
2019-02-28T02:58:18.210Z,63.60
2019-02-28T03:00:51.182Z,64.18
2019-02-28T03:03:22.342Z,63.98
2019-02-28T03:05:52.454Z,64.20
2019-02-28T03:08:22.571Z,64.05
2019-02-28T03:10:54.790Z,64.20
2019-02-28T03:13:24.911Z,64.27
2019-02-28T03:15:59.320Z,64.65
2019-02-28T03:18:27.830Z,64.70
2019-02-28T03:20:59.052Z,64.56
2019-02-28T03:23:29.168Z,64.46
2019-02-28T03:26:05.284Z,64.84
2019-02-28T03:28:33.396Z,64.85
2019-02-28T03:31:14.124Z,65.35
2019-02-28T03:33:38.611Z,65.36
2019-02-28T03:36:08.714Z,65.41
2019-02-28T03:38:38.859Z,65.41
2019-02-28T03:41:16.052Z,65.45
2019-02-28T03:43:43.778Z,65.21
2019-02-28T03:46:14.502Z,65.36
2019-02-28T03:48:44.581Z,65.12
2019-02-28T03:51:17.661Z,65.28
2019-02-28T03:53:55.541Z,65.48
2019-02-28T03:56:21.026Z,65.61
2019-02-28T03:58:53.863Z,65.45
2019-02-28T04:01:25.728Z,65.43
2019-02-28T04:03:55.993Z,65.39
2019-02-28T04:06:26.258Z,65.44
2019-02-28T04:09:07.028Z,65.37
2019-02-28T04:11:35.059Z,65.28
2019-02-28T04:14:05.953Z,65.30
2019-02-28T04:16:38.472Z,65.28
2019-02-28T04:19:08.642Z,65.39
2019-02-28T04:21:38.805Z,65.54
2019-02-28T04:24:13.817Z,65.26
2019-02-28T04:26:40.741Z,65.41
2019-02-28T04:29:11.431Z,65.62
2019-02-28T04:31:41.710Z,65.69
2019-02-28T04:34:13.352Z,65.63
2019-02-28T04:36:43.676Z,65.51
2019-02-28T04:39:13.783Z,65.67
2019-02-28T04:41:43.923Z,65.85
2019-02-28T04:44:18.307Z,65.86
2019-02-28T04:46:49.517Z,66.04
2019-02-28T04:49:22.744Z,66.22
2019-02-28T04:51:51.460Z,65.89
2019-02-28T04:54:27.888Z,65.76
2019-02-28T04:56:59.243Z,65.88
2019-02-28T04:59:31.606Z,65.81
2019-02-28T05:02:05.418Z,66.10
2019-02-28T05:04:36.121Z,66.28
2019-02-28T05:07:06.931Z,66.54
2019-02-28T05:09:37.148Z,66.10
2019-02-28T05:12:09.680Z,66.56
2019-02-28T05:14:39.955Z,66.75
2019-02-28T05:17:11.934Z,66.34
2019-02-28T05:19:43.153Z,66.32
2019-02-28T05:22:13.389Z,66.55
2019-02-28T05:24:43.797Z,66.84
2019-02-28T05:27:14.005Z,66.98
2019-02-28T05:29:44.833Z,66.83
2019-02-28T05:32:14.981Z,67.16
2019-02-28T05:34:47.433Z,67.54
2019-02-28T05:37:19.394Z,67.48
2019-02-28T05:39:49.718Z,67.42
2019-02-28T05:42:20.310Z,67.32
2019-02-28T05:44:51.688Z,67.36
2019-02-28T05:47:21.849Z,67.27
2019-02-28T05:49:51.912Z,67.61
2019-02-28T05:52:22.025Z,67.26
2019-02-28T05:54:52.114Z,67.14
2019-02-28T05:57:22.245Z,67.62
2019-02-28T05:59:52.603Z,67.83
2019-02-28T06:02:23.559Z,67.93
2019-02-28T06:04:54.714Z,68.09
2019-02-28T06:07:28.696Z,67.80
2019-02-28T06:09:56.712Z,68.00
2019-02-28T06:12:26.845Z,68.21
2019-02-28T06:15:01.951Z,68.39
2019-02-28T06:17:28.795Z,68.21
2019-02-28T06:19:59.714Z,68.16
2019-02-28T06:22:30.824Z,68.07
2019-02-28T06:25:01.979Z,68.13
2019-02-28T06:27:41.108Z,68.47
2019-02-28T06:30:04.057Z,68.29
2019-02-28T06:32:34.244Z,68.48
2019-02-28T06:35:04.990Z,68.53
2019-02-28T06:37:38.397Z,68.35
2019-02-28T06:40:09.392Z,68.41
2019-02-28T06:42:43.594Z,68.43
2019-02-28T06:45:16.733Z,68.65
2019-02-28T06:47:50.948Z,68.69
2019-02-28T06:50:21.184Z,68.97
2019-02-28T06:52:51.884Z,68.74
2019-02-28T06:55:25.733Z,68.70
2019-02-28T06:57:58.859Z,68.89
2019-02-28T07:00:30.640Z,68.80
2019-02-28T07:03:03.413Z,68.77
2019-02-28T07:05:32.538Z,68.90
2019-02-28T07:08:02.658Z,68.72
2019-02-28T07:10:33.265Z,68.86
2019-02-28T07:13:05.732Z,69.04
2019-02-28T07:15:39.063Z,69.12
2019-02-28T07:18:09.726Z,69.17
2019-02-28T07:20:39.831Z,68.94
2019-02-28T07:23:10.078Z,69.11
2019-02-28T07:25:40.169Z,68.85
2019-02-28T07:28:10.285Z,69.00
2019-02-28T07:30:40.378Z,68.83
2019-02-28T07:33:10.905Z,68.82
2019-02-28T07:35:47.577Z,69.00
2019-02-28T07:38:20.430Z,68.85
2019-02-28T07:40:50.729Z,68.66
2019-02-28T07:43:20.931Z,68.70
2019-02-28T07:45:54.054Z,68.59
2019-02-28T07:48:30.059Z,68.69
2019-02-28T07:51:02.109Z,68.65
2019-02-28T07:53:35.522Z,68.30
2019-02-28T07:56:07.774Z,68.31
2019-02-28T07:58:38.059Z,68.49
2019-02-28T08:01:11.138Z,68.05
2019-02-28T08:03:43.712Z,68.12
2019-02-28T08:06:15.002Z,68.02
2019-02-28T08:08:45.147Z,67.81
2019-02-28T08:11:15.268Z,67.80
2019-02-28T08:13:51.776Z,67.75
2019-02-28T08:16:24.865Z,67.57
2019-02-28T08:18:54.993Z,67.63
2019-02-28T08:21:27.890Z,67.27
2019-02-28T08:23:58.029Z,66.94
2019-02-28T08:26:28.127Z,66.81
2019-02-28T08:29:01.737Z,66.72
2019-02-28T08:31:35.355Z,66.39
2019-02-28T08:34:05.777Z,66.26
2019-02-28T08:36:36.026Z,66.25
2019-02-28T08:39:17.258Z,65.92
2019-02-28T08:41:49.541Z,65.71
2019-02-28T08:44:22.777Z,65.43
2019-02-28T08:46:51.667Z,65.40
2019-02-28T08:49:24.865Z,65.20
2019-02-28T08:51:56.981Z,64.97
2019-02-28T08:54:27.562Z,64.91
2019-02-28T08:56:58.881Z,64.67
2019-02-28T08:59:32.740Z,64.23
2019-02-28T09:02:02.824Z,64.22
2019-02-28T09:04:44.882Z,63.93
2019-02-28T09:07:15.232Z,63.44
2019-02-28T09:09:48.042Z,64.08
2019-02-28T09:12:18.157Z,63.90
2019-02-28T09:14:51.928Z,64.21
2019-02-28T09:17:26.387Z,64.09
2019-02-28T09:19:56.560Z,63.84
2019-02-28T09:22:30.935Z,63.33
2019-02-28T09:25:01.183Z,63.08
2019-02-28T09:27:31.798Z,62.44
2019-02-28T09:30:01.986Z,62.39
2019-02-28T09:32:33.762Z,62.55
2019-02-28T09:35:06.396Z,62.07
2019-02-28T09:37:36.109Z,61.92
2019-02-28T09:40:07.538Z,61.58
2019-02-28T09:42:37.679Z,61.40
2019-02-28T09:45:10.520Z,61.03
2019-02-28T09:47:40.722Z,60.87
2019-02-28T09:50:15.280Z,60.54
2019-02-28T09:52:47.788Z,60.22
2019-02-28T09:55:21.288Z,59.94
2019-02-28T09:57:54.675Z,60.21
2019-02-28T10:00:23.533Z,60.13
2019-02-28T10:02:53.700Z,59.83
2019-02-28T10:05:23.989Z,59.94
2019-02-28T10:07:54.227Z,59.81
2019-02-28T10:10:24.488Z,59.82
2019-02-28T10:12:56.791Z,59.68
2019-02-28T10:15:26.596Z,59.51
2019-02-28T10:17:56.711Z,59.01
2019-02-28T10:20:28.509Z,58.94
2019-02-28T10:22:59.028Z,58.58
2019-02-28T10:25:29.198Z,58.43
2019-02-28T10:28:02.677Z,58.24
2019-02-28T10:30:32.599Z,57.91
2019-02-28T10:33:02.928Z,57.75
2019-02-28T10:35:33.547Z,57.56
2019-02-28T10:38:05.753Z,56.55
2019-02-28T10:40:40.147Z,56.49
2019-02-28T10:43:12.173Z,56.69
2019-02-28T10:45:42.899Z,56.48
2019-02-28T10:48:13.426Z,56.46
2019-02-28T10:50:46.072Z,56.38
2019-02-28T10:53:19.318Z,55.73
2019-02-28T10:55:54.451Z,55.83
2019-02-28T10:58:26.704Z,55.84
2019-02-28T11:00:57.198Z,55.02
2019-02-28T11:03:31.764Z,54.90
2019-02-28T11:06:02.857Z,53.80
2019-02-28T11:08:34.608Z,53.66
2019-02-28T11:11:11.409Z,54.17
2019-02-28T11:14:06.704Z,53.68
2019-02-28T11:16:24.468Z,53.67
2019-02-28T11:18:57.883Z,53.48
2019-02-28T11:21:29.750Z,53.40
2019-02-28T11:24:01.259Z,53.52
2019-02-28T11:26:33.940Z,53.63
2019-02-28T11:29:11.511Z,53.73
2019-02-28T11:31:42.251Z,53.23
2019-02-28T11:34:15.003Z,53.42
2019-02-28T11:36:45.347Z,53.83
2019-02-28T11:39:23.299Z,53.79
2019-02-28T11:41:55.158Z,53.35
2019-02-28T11:44:25.545Z,52.79
2019-02-28T11:46:56.713Z,52.61
2019-02-28T11:49:28.660Z,52.96
2019-02-28T11:52:06.025Z,52.95
2019-02-28T11:54:36.388Z,52.95
2019-02-28T11:57:07.041Z,52.64
2019-02-28T11:59:37.357Z,52.75
2019-02-28T12:02:08.262Z,52.33
2019-02-28T12:04:40.540Z,52.39
2019-02-28T12:07:10.983Z,52.12
2019-02-28T12:09:44.301Z,51.68
2019-02-28T12:12:14.219Z,51.40
2019-02-28T12:14:44.421Z,50.79
2019-02-28T12:17:18.029Z,51.27
2019-02-28T12:19:50.711Z,51.12
2019-02-28T12:22:21.235Z,51.01
2019-02-28T12:24:51.425Z,50.83
2019-02-28T12:27:24.415Z,50.74
2019-02-28T12:29:55.904Z,50.65
2019-02-28T12:32:26.630Z,50.31
2019-02-28T12:35:01.293Z,50.29
2019-02-28T12:37:44.594Z,50.53
2019-02-28T12:40:22.004Z,50.47
2019-02-28T12:42:53.994Z,51.14
2019-02-28T12:45:35.218Z,50.96
2019-02-28T12:48:07.261Z,50.85
2019-02-28T12:50:39.136Z,50.89
2019-02-28T12:53:32.593Z,50.95
2019-02-28T12:56:06.221Z,50.90
2019-02-28T12:58:39.005Z,51.21
2019-02-28T13:01:13.245Z,51.10
2019-02-28T13:03:46.717Z,51.28
2019-02-28T13:06:23.681Z,51.15
2019-02-28T13:08:53.916Z,50.98
2019-02-28T13:11:26.945Z,50.71
2019-02-28T13:14:09.142Z,50.53
2019-02-28T13:16:39.745Z,50.68
2019-02-28T13:19:10.820Z,51.13
2019-02-28T13:21:43.590Z,51.14
2019-02-28T13:24:15.067Z,51.04
2019-02-28T13:26:45.392Z,51.27
2019-02-28T13:29:18.581Z,51.54
2019-02-28T13:31:48.901Z,51.57
2019-02-28T13:34:24.885Z,52.11
2019-02-28T13:37:00.555Z,52.18
2019-02-28T13:39:27.412Z,51.51
2019-02-28T13:42:02.986Z,51.06
2019-02-28T13:44:36.437Z,51.20
2019-02-28T13:47:09.803Z,51.10
2019-02-28T13:49:38.673Z,50.63
2019-02-28T13:52:08.808Z,50.61
2019-02-28T13:54:42.109Z,49.89
2019-02-28T13:57:11.292Z,49.67
2019-02-28T13:59:41.508Z,49.83
2019-02-28T14:02:13.684Z,49.63
2019-02-28T14:04:43.976Z,49.83
2019-02-28T14:07:15.190Z,49.59
2019-02-28T14:09:45.341Z,50.02
2019-02-28T14:12:17.006Z,50.35
2019-02-28T14:14:51.541Z,50.69
2019-02-28T14:17:21.663Z,50.97
2019-02-28T14:19:52.692Z,51.40
2019-02-28T14:22:23.680Z,51.15
2019-02-28T14:24:53.940Z,50.58
2019-02-28T14:27:25.305Z,50.22
2019-02-28T14:29:56.054Z,50.43
2019-02-28T14:32:26.296Z,50.66
2019-02-28T14:34:59.977Z,50.93
2019-02-28T14:37:30.126Z,51.10
2019-02-28T14:40:00.800Z,51.63
2019-02-28T14:42:32.290Z,52.03
2019-02-28T14:45:04.056Z,52.78
2019-02-28T14:47:34.344Z,52.93
2019-02-28T14:50:07.051Z,52.99
2019-02-28T14:52:39.393Z,52.83
2019-02-28T14:55:14.406Z,52.64
2019-02-28T14:57:45.010Z,52.74
2019-02-28T15:00:17.346Z,51.78
2019-02-28T15:02:47.805Z,52.41
2019-02-28T15:05:21.608Z,52.51
2019-02-28T15:07:52.380Z,52.06
2019-02-28T15:10:53.328Z,52.07
2019-02-28T15:13:25.255Z,52.23
2019-02-28T15:15:58.487Z,52.14
2019-02-28T15:18:31.662Z,51.71
2019-02-28T15:21:04.448Z,51.65
2019-02-28T15:23:35.453Z,51.89
2019-02-28T15:26:09.852Z,51.99
2019-02-28T15:28:45.484Z,52.10
2019-02-28T15:31:15.683Z,51.99
2019-02-28T15:33:45.782Z,52.11
2019-02-28T15:36:24.288Z,52.61
2019-02-28T15:38:58.865Z,52.81
2019-02-28T15:41:30.631Z,52.98
2019-02-28T15:44:09.380Z,53.55
2019-02-28T15:46:43.843Z,53.55
2019-02-28T15:49:13.096Z,53.86
2019-02-28T15:51:43.339Z,54.08
2019-02-28T15:54:13.669Z,54.21
2019-02-28T15:56:51.820Z,54.52
2019-02-28T15:59:38.899Z,54.54
2019-02-28T16:02:10.429Z,54.75
2019-02-28T16:04:40.861Z,54.97
2019-02-28T16:07:11.250Z,55.43
2019-02-28T16:09:41.650Z,55.16
2019-02-28T16:12:15.185Z,55.39
2019-02-28T16:14:45.843Z,55.37
2019-02-28T16:17:17.179Z,55.75
2019-02-28T16:19:47.338Z,55.55
2019-02-28T16:22:19.115Z,55.85
2019-02-28T16:24:53.721Z,56.04
2019-02-28T16:27:23.991Z,56.32
2019-02-28T16:29:57.272Z,56.19
2019-02-28T16:32:36.216Z,56.37
2019-02-28T16:35:14.595Z,56.47
2019-02-28T16:37:48.832Z,56.39
2019-02-28T16:40:27.151Z,56.53
2019-02-28T16:42:59.630Z,56.60
2019-02-28T16:45:37.439Z,56.75
2019-02-28T16:48:09.508Z,56.77
2019-02-28T16:50:39.990Z,56.74
2019-02-28T16:53:14.771Z,56.91
2019-02-28T16:55:42.204Z,57.15
2019-02-28T16:58:12.496Z,57.18
2019-02-28T17:00:46.333Z,57.37
2019-02-28T17:03:20.866Z,57.91
2019-02-28T17:05:52.579Z,58.02
2019-02-28T17:08:23.331Z,58.02
2019-02-28T17:10:55.880Z,58.25
2019-02-28T17:13:35.604Z,58.38
2019-02-28T17:16:28.391Z,58.58
2019-02-28T17:18:58.819Z,58.60
2019-02-28T17:21:37.819Z,58.66
2019-02-28T17:24:08.705Z,59.03
2019-02-28T17:26:55.478Z,58.86
2019-02-28T17:29:36.382Z,59.08
2019-02-28T17:32:06.881Z,59.45
2019-02-28T17:34:39.970Z,59.64
2019-02-28T17:37:11.327Z,59.67
2019-02-28T17:39:42.361Z,59.83
2019-02-28T17:42:15.204Z,59.92
2019-02-28T17:45:10.549Z,59.61
2019-02-28T17:48:26.168Z,59.73
2019-02-28T17:51:22.310Z,60.04
2019-02-28T17:54:48.498Z,60.20
2019-02-28T17:58:05.895Z,59.96
2019-02-28T18:01:19.953Z,59.92
2019-02-28T18:04:29.583Z,59.76
2019-02-28T18:07:34.416Z,59.45
2019-02-28T18:10:50.982Z,59.35
2019-02-28T18:13:30.705Z,59.29
2019-02-28T18:16:54.607Z,59.56
2019-02-28T18:19:51.083Z,59.50
2019-02-28T18:22:56.631Z,59.57
2019-02-28T18:25:40.719Z,59.65
2019-02-28T18:29:06.155Z,59.66
2019-02-28T18:31:36.452Z,59.98
2019-02-28T18:34:12.973Z,60.08
2019-02-28T18:36:44.230Z,59.96
2019-02-28T18:39:15.273Z,59.93
2019-02-28T18:41:46.855Z,59.88
2019-02-28T18:44:25.081Z,59.70
2019-02-28T18:46:55.448Z,59.54
2019-02-28T18:49:30.153Z,59.36
2019-02-28T18:52:04.067Z,59.54
2019-02-28T18:54:35.871Z,59.43
2019-02-28T18:57:09.883Z,59.61
2019-02-28T18:59:47.154Z,59.58
2019-02-28T19:02:21.209Z,59.37
2019-02-28T19:04:53.758Z,59.08
2019-02-28T19:07:26.120Z,59.02
2019-02-28T19:10:00.318Z,59.04
2019-02-28T19:12:37.188Z,59.22
2019-02-28T19:15:22.561Z,59.25
2019-02-28T19:17:58.623Z,59.17
2019-02-28T19:20:30.549Z,58.98
2019-02-28T19:23:00.836Z,59.11
2019-02-28T19:25:31.455Z,59.28
2019-02-28T19:28:07.311Z,59.46
2019-02-28T19:30:37.623Z,59.61
2019-02-28T19:33:08.003Z,59.83
2019-02-28T19:35:38.281Z,59.76
2019-02-28T19:38:20.347Z,59.87
2019-02-28T19:41:03.105Z,59.86
2019-02-28T19:43:34.116Z,59.61
2019-02-28T19:46:17.977Z,59.32
2019-02-28T19:49:01.762Z,59.27
2019-02-28T19:51:35.721Z,59.65
2019-02-28T19:54:11.301Z,59.45
2019-02-28T19:57:06.606Z,59.31
2019-02-28T19:59:37.497Z,59.42
2019-02-28T20:02:10.585Z,59.13
2019-02-28T20:05:04.252Z,58.90
2019-02-28T20:07:36.397Z,58.95
2019-02-28T20:10:09.099Z,59.71
2019-02-28T20:12:43.689Z,60.37
2019-02-28T20:15:17.039Z,60.85
2019-02-28T20:17:52.820Z,62.02
2019-02-28T20:20:24.311Z,62.41
2019-02-28T20:22:54.764Z,62.53
2019-02-28T20:25:27.120Z,63.05
2019-02-28T20:27:58.888Z,64.39
2019-02-28T20:30:31.530Z,64.97
2019-02-28T20:33:06.641Z,65.05
2019-02-28T20:35:37.324Z,65.62
2019-02-28T20:38:08.133Z,67.53
2019-02-28T20:40:38.399Z,68.94
2019-02-28T20:43:09.772Z,68.25
2019-02-28T20:45:40.129Z,69.16
2019-02-28T20:48:10.269Z,69.04
2019-02-28T20:50:41.508Z,69.64
2019-02-28T20:53:18.347Z,69.63
2019-02-28T20:55:58.343Z,69.74
2019-02-28T20:58:42.539Z,69.06
2019-02-28T21:01:13.453Z,69.35
2019-02-28T21:03:46.699Z,68.88
2019-02-28T21:06:17.472Z,68.51
2019-02-28T21:08:47.808Z,68.74
2019-02-28T21:11:18.564Z,68.53
2019-02-28T21:13:49.974Z,68.33
2019-02-28T21:16:20.313Z,68.35
2019-02-28T21:18:50.596Z,68.41
2019-02-28T21:21:20.856Z,68.68
2019-02-28T21:23:53.963Z,68.96
2019-02-28T21:26:24.422Z,69.72
2019-02-28T21:28:54.820Z,70.60
2019-02-28T21:31:25.210Z,71.26
2019-02-28T21:33:57.694Z,70.79
2019-02-28T21:36:28.050Z,70.67
2019-02-28T21:39:02.218Z,71.00
2019-02-28T21:41:34.546Z,71.91
2019-02-28T21:44:06.202Z,71.45
2019-02-28T21:46:36.416Z,71.48
2019-02-28T21:49:08.182Z,71.86
2019-02-28T21:51:38.355Z,71.00
2019-02-28T21:54:08.541Z,70.93
2019-02-28T21:56:38.673Z,71.44
2019-02-28T21:59:08.931Z,71.31
2019-02-28T22:01:40.945Z,71.69
2019-02-28T22:04:11.210Z,71.37
2019-02-28T22:06:41.442Z,70.75
2019-02-28T22:09:11.683Z,70.49
2019-02-28T22:11:43.778Z,70.55
2019-02-28T22:14:15.168Z,70.78
2019-02-28T22:16:45.272Z,70.74
2019-02-28T22:19:15.925Z,71.26
2019-02-28T22:21:46.068Z,71.52
2019-02-28T22:24:16.236Z,71.47
2019-02-28T22:26:48.799Z,71.46
2019-02-28T22:29:19.980Z,71.87
2019-02-28T22:32:10.253Z,71.20
2019-02-28T22:35:04.024Z,71.80
2019-02-28T22:37:35.984Z,71.36
2019-02-28T22:40:06.873Z,71.61
2019-02-28T22:42:37.007Z,71.56
2019-02-28T22:45:07.501Z,70.90
2019-02-28T22:47:37.593Z,70.34
2019-02-28T22:50:07.764Z,70.17
2019-02-28T22:52:39.174Z,70.19
2019-02-28T22:55:09.523Z,70.16
2019-02-28T22:57:40.768Z,70.21
2019-02-28T23:00:19.342Z,70.64
2019-02-28T23:02:51.105Z,71.05
2019-02-28T23:05:22.475Z,70.11
2019-02-28T23:07:53.823Z,70.67
2019-02-28T23:10:25.741Z,71.08
2019-02-28T23:12:56.010Z,71.25
2019-02-28T23:15:26.993Z,71.46
2019-02-28T23:17:57.507Z,72.46
2019-02-28T23:20:27.689Z,73.23
2019-02-28T23:22:57.997Z,73.24
2019-02-28T23:25:28.274Z,73.08
2019-02-28T23:28:10.166Z,72.93
2019-02-28T23:31:37.125Z,73.70
2019-02-28T23:34:15.047Z,73.13
2019-02-28T23:36:45.615Z,73.14
2019-02-28T23:39:16.927Z,74.60
2019-02-28T23:41:47.144Z,74.02
2019-02-28T23:44:17.297Z,74.93
2019-02-28T23:46:47.441Z,76.47
2019-02-28T23:49:17.675Z,76.53
2019-02-28T23:51:47.780Z,75.49
2019-02-28T23:54:17.926Z,75.13
2019-02-28T23:56:49.123Z,74.97
2019-02-28T23:59:19.255Z,74.89
